sensor_id;sensor_type;location;lat;lon;timestamp;P1;durP1;ratioP1;P2;durP2;ratioP2
36585;SDS011;22591;48.314;11.562;2023-06-14T00:01:16;5.57;;;2.95;;
36585;SDS011;22591;48.314;11.562;2023-06-14T00:03:45;3.60;;;3.30;;
36585;SDS011;22591;48.314;11.562;2023-06-14T00:06:12;3.05;;;2.85;;
36585;SDS011;22591;48.314;11.562;2023-06-14T00:08:38;3.53;;;3.22;;
36585;SDS011;22591;48.314;11.562;2023-06-14T00:11:04;2.97;;;2.78;;
36585;SDS011;22591;48.314;11.562;2023-06-14T00:13:30;3.13;;;2.92;;
36585;SDS011;22591;48.314;11.562;2023-06-14T00:15:56;4.85;;;3.22;;
36585;SDS011;22591;48.314;11.562;2023-06-14T00:18:22;3.42;;;3.13;;
36585;SDS011;22591;48.314;11.562;2023-06-14T00:20:54;3.05;;;2.85;;
36585;SDS011;22591;48.314;11.562;2023-06-14T00:23:20;3.28;;;2.80;;
36585;SDS011;22591;48.314;11.562;2023-06-14T00:25:46;3.78;;;3.58;;
36585;SDS011;22591;48.314;11.562;2023-06-14T00:28:11;3.45;;;3.15;;
36585;SDS011;22591;48.314;11.562;2023-06-14T00:30:37;5.35;;;2.75;;
36585;SDS011;22591;48.314;11.562;2023-06-14T00:33:02;2.88;;;2.67;;
36585;SDS011;22591;48.314;11.562;2023-06-14T00:35:28;3.38;;;3.08;;
36585;SDS011;22591;48.314;11.562;2023-06-14T00:37:54;3.17;;;2.83;;
36585;SDS011;22591;48.314;11.562;2023-06-14T00:40:20;3.08;;;2.88;;
36585;SDS011;22591;48.314;11.562;2023-06-14T00:42:46;3.65;;;3.45;;
36585;SDS011;22591;48.314;11.562;2023-06-14T00:45:12;4.38;;;3.45;;
36585;SDS011;22591;48.314;11.562;2023-06-14T00:47:38;3.50;;;3.20;;
36585;SDS011;22591;48.314;11.562;2023-06-14T00:50:06;3.28;;;3.08;;
36585;SDS011;22591;48.314;11.562;2023-06-14T00:52:32;3.22;;;3.03;;
36585;SDS011;22591;48.314;11.562;2023-06-14T00:54:59;4.43;;;3.20;;
36585;SDS011;22591;48.314;11.562;2023-06-14T00:57:25;5.00;;;2.95;;
36585;SDS011;22591;48.314;11.562;2023-06-14T00:59:52;3.20;;;2.90;;
36585;SDS011;22591;48.314;11.562;2023-06-14T01:02:17;3.50;;;3.28;;
36585;SDS011;22591;48.314;11.562;2023-06-14T01:04:43;3.25;;;3.00;;
36585;SDS011;22591;48.314;11.562;2023-06-14T01:07:28;3.90;;;3.10;;
36585;SDS011;22591;48.314;11.562;2023-06-14T01:12:36;3.20;;;3.00;;
36585;SDS011;22591;48.314;11.562;2023-06-14T01:15:15;3.17;;;2.90;;
36585;SDS011;22591;48.314;11.562;2023-06-14T01:17:42;3.47;;;3.10;;
36585;SDS011;22591;48.314;11.562;2023-06-14T01:20:11;3.47;;;2.95;;
36585;SDS011;22591;48.314;11.562;2023-06-14T01:22:52;3.65;;;3.35;;
36585;SDS011;22591;48.314;11.562;2023-06-14T01:25:19;5.10;;;3.85;;
36585;SDS011;22591;48.314;11.562;2023-06-14T01:27:47;3.80;;;3.47;;
36585;SDS011;22591;48.314;11.562;2023-06-14T01:30:26;4.55;;;3.17;;
36585;SDS011;22591;48.314;11.562;2023-06-14T01:32:54;7.63;;;3.88;;
36585;SDS011;22591;48.314;11.562;2023-06-14T01:35:20;3.88;;;3.50;;
36585;SDS011;22591;48.314;11.562;2023-06-14T01:37:47;3.90;;;3.60;;
36585;SDS011;22591;48.314;11.562;2023-06-14T01:40:14;3.63;;;3.33;;
36585;SDS011;22591;48.314;11.562;2023-06-14T01:42:40;5.20;;;3.55;;
36585;SDS011;22591;48.314;11.562;2023-06-14T01:45:07;3.88;;;3.50;;
36585;SDS011;22591;48.314;11.562;2023-06-14T01:47:34;4.53;;;4.22;;
36585;SDS011;22591;48.314;11.562;2023-06-14T01:50:01;4.65;;;4.25;;
36585;SDS011;22591;48.314;11.562;2023-06-14T01:52:28;4.88;;;3.92;;
36585;SDS011;22591;48.314;11.562;2023-06-14T01:54:53;5.70;;;3.45;;
36585;SDS011;22591;48.314;11.562;2023-06-14T01:57:19;4.85;;;4.38;;
36585;SDS011;22591;48.314;11.562;2023-06-14T01:59:45;6.55;;;4.55;;
36585;SDS011;22591;48.314;11.562;2023-06-14T02:02:13;4.15;;;3.78;;
36585;SDS011;22591;48.314;11.562;2023-06-14T02:04:39;4.78;;;4.05;;
36585;SDS011;22591;48.314;11.562;2023-06-14T02:07:05;4.55;;;4.15;;
36585;SDS011;22591;48.314;11.562;2023-06-14T02:09:30;5.45;;;3.83;;
36585;SDS011;22591;48.314;11.562;2023-06-14T02:11:56;3.97;;;3.67;;
36585;SDS011;22591;48.314;11.562;2023-06-14T02:14:21;4.45;;;4.07;;
36585;SDS011;22591;48.314;11.562;2023-06-14T02:16:48;5.75;;;3.70;;
36585;SDS011;22591;48.314;11.562;2023-06-14T02:19:17;4.35;;;4.05;;
36585;SDS011;22591;48.314;11.562;2023-06-14T02:21:43;4.22;;;3.90;;
36585;SDS011;22591;48.314;11.562;2023-06-14T02:24:09;6.80;;;4.25;;
36585;SDS011;22591;48.314;11.562;2023-06-14T02:26:35;4.50;;;4.00;;
36585;SDS011;22591;48.314;11.562;2023-06-14T02:29:03;4.78;;;4.35;;
36585;SDS011;22591;48.314;11.562;2023-06-14T02:31:33;6.87;;;4.43;;
36585;SDS011;22591;48.314;11.562;2023-06-14T02:34:00;4.32;;;3.92;;
36585;SDS011;22591;48.314;11.562;2023-06-14T02:36:25;4.60;;;4.20;;
36585;SDS011;22591;48.314;11.562;2023-06-14T02:38:51;5.55;;;4.20;;
36585;SDS011;22591;48.314;11.562;2023-06-14T02:41:19;5.00;;;4.50;;
36585;SDS011;22591;48.314;11.562;2023-06-14T02:43:44;4.57;;;4.10;;
36585;SDS011;22591;48.314;11.562;2023-06-14T02:46:10;5.05;;;4.70;;
36585;SDS011;22591;48.314;11.562;2023-06-14T02:48:36;4.55;;;4.07;;
36585;SDS011;22591;48.314;11.562;2023-06-14T02:51:02;5.03;;;4.25;;
36585;SDS011;22591;48.314;11.562;2023-06-14T02:53:27;4.82;;;4.40;;
36585;SDS011;22591;48.314;11.562;2023-06-14T02:55:53;6.82;;;4.70;;
36585;SDS011;22591;48.314;11.562;2023-06-14T02:58:20;5.53;;;4.22;;
36585;SDS011;22591;48.314;11.562;2023-06-14T03:00:46;4.75;;;4.35;;
36585;SDS011;22591;48.314;11.562;2023-06-14T03:03:11;4.32;;;4.03;;
36585;SDS011;22591;48.314;11.562;2023-06-14T03:05:41;5.30;;;4.85;;
36585;SDS011;22591;48.314;11.562;2023-06-14T03:08:12;4.43;;;4.03;;
36585;SDS011;22591;48.314;11.562;2023-06-14T03:10:42;4.63;;;4.22;;
36585;SDS011;22591;48.314;11.562;2023-06-14T03:13:08;5.90;;;4.50;;
36585;SDS011;22591;48.314;11.562;2023-06-14T03:15:33;5.10;;;4.60;;
36585;SDS011;22591;48.314;11.562;2023-06-14T03:18:00;4.38;;;4.07;;
36585;SDS011;22591;48.314;11.562;2023-06-14T03:20:25;4.57;;;4.28;;
36585;SDS011;22591;48.314;11.562;2023-06-14T03:22:54;5.28;;;4.78;;
36585;SDS011;22591;48.314;11.562;2023-06-14T03:25:19;5.22;;;4.72;;
36585;SDS011;22591;48.314;11.562;2023-06-14T03:27:46;5.55;;;4.80;;
36585;SDS011;22591;48.314;11.562;2023-06-14T03:30:12;4.60;;;4.30;;
36585;SDS011;22591;48.314;11.562;2023-06-14T03:32:38;4.38;;;3.97;;
36585;SDS011;22591;48.314;11.562;2023-06-14T03:35:04;4.20;;;3.90;;
36585;SDS011;22591;48.314;11.562;2023-06-14T03:37:30;8.20;;;5.20;;
36585;SDS011;22591;48.314;11.562;2023-06-14T03:39:55;5.75;;;5.00;;
36585;SDS011;22591;48.314;11.562;2023-06-14T03:42:21;4.70;;;4.30;;
36585;SDS011;22591;48.314;11.562;2023-06-14T03:44:47;5.22;;;4.57;;
36585;SDS011;22591;48.314;11.562;2023-06-14T03:47:12;4.95;;;4.45;;
36585;SDS011;22591;48.314;11.562;2023-06-14T03:49:38;4.10;;;3.80;;
36585;SDS011;22591;48.314;11.562;2023-06-14T03:52:04;4.25;;;3.95;;
36585;SDS011;22591;48.314;11.562;2023-06-14T03:54:30;4.07;;;3.78;;
36585;SDS011;22591;48.314;11.562;2023-06-14T03:56:57;4.00;;;3.70;;
36585;SDS011;22591;48.314;11.562;2023-06-14T03:59:23;3.90;;;3.67;;
36585;SDS011;22591;48.314;11.562;2023-06-14T04:01:50;5.53;;;4.03;;
36585;SDS011;22591;48.314;11.562;2023-06-14T04:04:16;4.57;;;4.05;;
36585;SDS011;22591;48.314;11.562;2023-06-14T04:06:42;4.55;;;3.92;;
36585;SDS011;22591;48.314;11.562;2023-06-14T04:09:07;4.30;;;3.90;;
36585;SDS011;22591;48.314;11.562;2023-06-14T04:11:33;4.25;;;3.95;;
36585;SDS011;22591;48.314;11.562;2023-06-14T04:13:59;4.18;;;3.75;;
36585;SDS011;22591;48.314;11.562;2023-06-14T04:16:25;4.60;;;3.95;;
36585;SDS011;22591;48.314;11.562;2023-06-14T04:18:51;3.65;;;3.45;;
36585;SDS011;22591;48.314;11.562;2023-06-14T04:21:17;3.90;;;3.60;;
36585;SDS011;22591;48.314;11.562;2023-06-14T04:23:42;4.25;;;3.95;;
36585;SDS011;22591;48.314;11.562;2023-06-14T04:26:09;4.43;;;4.07;;
36585;SDS011;22591;48.314;11.562;2023-06-14T04:28:35;4.60;;;4.05;;
36585;SDS011;22591;48.314;11.562;2023-06-14T04:31:06;4.50;;;4.15;;
36585;SDS011;22591;48.314;11.562;2023-06-14T04:33:34;4.18;;;3.78;;
36585;SDS011;22591;48.314;11.562;2023-06-14T04:36:07;4.55;;;3.92;;
36585;SDS011;22591;48.314;11.562;2023-06-14T04:38:34;4.20;;;3.80;;
36585;SDS011;22591;48.314;11.562;2023-06-14T04:41:00;7.82;;;4.38;;
36585;SDS011;22591;48.314;11.562;2023-06-14T04:43:27;4.38;;;4.03;;
36585;SDS011;22591;48.314;11.562;2023-06-14T04:45:52;5.70;;;4.32;;
36585;SDS011;22591;48.314;11.562;2023-06-14T04:48:20;4.53;;;4.22;;
36585;SDS011;22591;48.314;11.562;2023-06-14T04:50:47;4.35;;;4.05;;
36585;SDS011;22591;48.314;11.562;2023-06-14T04:53:13;5.38;;;4.30;;
36585;SDS011;22591;48.314;11.562;2023-06-14T04:55:39;4.93;;;4.63;;
36585;SDS011;22591;48.314;11.562;2023-06-14T04:58:04;4.75;;;4.35;;
36585;SDS011;22591;48.314;11.562;2023-06-14T05:00:30;5.90;;;5.45;;
36585;SDS011;22591;48.314;11.562;2023-06-14T05:02:56;4.97;;;4.47;;
36585;SDS011;22591;48.314;11.562;2023-06-14T05:05:22;6.38;;;5.32;;
36585;SDS011;22591;48.314;11.562;2023-06-14T05:07:48;5.20;;;4.82;;
36585;SDS011;22591;48.314;11.562;2023-06-14T05:10:14;4.68;;;4.25;;
36585;SDS011;22591;48.314;11.562;2023-06-14T05:12:40;5.32;;;4.75;;
36585;SDS011;22591;48.314;11.562;2023-06-14T05:15:08;6.15;;;4.70;;
36585;SDS011;22591;48.314;11.562;2023-06-14T05:17:34;5.53;;;5.00;;
36585;SDS011;22591;48.314;11.562;2023-06-14T05:20:01;6.22;;;4.50;;
36585;SDS011;22591;48.314;11.562;2023-06-14T05:22:27;4.82;;;4.43;;
36585;SDS011;22591;48.314;11.562;2023-06-14T05:24:52;7.32;;;4.50;;
36585;SDS011;22591;48.314;11.562;2023-06-14T05:27:18;5.57;;;5.05;;
36585;SDS011;22591;48.314;11.562;2023-06-14T05:29:43;4.53;;;4.22;;
36585;SDS011;22591;48.314;11.562;2023-06-14T05:32:09;5.00;;;4.40;;
36585;SDS011;22591;48.314;11.562;2023-06-14T05:34:34;5.88;;;4.75;;
36585;SDS011;22591;48.314;11.562;2023-06-14T05:37:00;5.57;;;5.05;;
36585;SDS011;22591;48.314;11.562;2023-06-14T05:39:25;6.20;;;5.35;;
36585;SDS011;22591;48.314;11.562;2023-06-14T05:41:51;5.90;;;4.65;;
36585;SDS011;22591;48.314;11.562;2023-06-14T05:44:17;4.43;;;4.10;;
36585;SDS011;22591;48.314;11.562;2023-06-14T05:46:43;5.78;;;5.20;;
36585;SDS011;22591;48.314;11.562;2023-06-14T05:49:08;4.22;;;3.92;;
36585;SDS011;22591;48.314;11.562;2023-06-14T05:51:34;4.40;;;4.00;;
36585;SDS011;22591;48.314;11.562;2023-06-14T05:54:00;4.88;;;4.32;;
36585;SDS011;22591;48.314;11.562;2023-06-14T05:56:26;5.82;;;4.15;;
36585;SDS011;22591;48.314;11.562;2023-06-14T05:58:51;6.70;;;4.65;;
36585;SDS011;22591;48.314;11.562;2023-06-14T06:01:17;7.93;;;4.40;;
36585;SDS011;22591;48.314;11.562;2023-06-14T06:03:42;4.95;;;4.55;;
36585;SDS011;22591;48.314;11.562;2023-06-14T06:06:11;4.55;;;3.88;;
36585;SDS011;22591;48.314;11.562;2023-06-14T06:08:37;4.80;;;4.40;;
36585;SDS011;22591;48.314;11.562;2023-06-14T06:11:03;6.53;;;5.07;;
36585;SDS011;22591;48.314;11.562;2023-06-14T06:13:29;6.00;;;3.72;;
36585;SDS011;22591;48.314;11.562;2023-06-14T06:15:54;5.00;;;4.50;;
36585;SDS011;22591;48.314;11.562;2023-06-14T06:18:21;6.88;;;3.80;;
36585;SDS011;22591;48.314;11.562;2023-06-14T06:20:46;4.82;;;4.43;;
36585;SDS011;22591;48.314;11.562;2023-06-14T06:23:12;5.00;;;4.50;;
36585;SDS011;22591;48.314;11.562;2023-06-14T06:25:37;4.43;;;3.97;;
36585;SDS011;22591;48.314;11.562;2023-06-14T06:28:04;5.55;;;3.28;;
36585;SDS011;22591;48.314;11.562;2023-06-14T06:30:31;8.05;;;4.03;;
36585;SDS011;22591;48.314;11.562;2023-06-14T06:32:57;7.90;;;3.60;;
36585;SDS011;22591;48.314;11.562;2023-06-14T06:35:22;3.83;;;3.50;;
36585;SDS011;22591;48.314;11.562;2023-06-14T06:37:48;4.00;;;3.30;;
36585;SDS011;22591;48.314;11.562;2023-06-14T06:40:14;5.15;;;3.78;;
36585;SDS011;22591;48.314;11.562;2023-06-14T06:42:39;4.40;;;4.00;;
36585;SDS011;22591;48.314;11.562;2023-06-14T06:45:05;6.63;;;3.45;;
36585;SDS011;22591;48.314;11.562;2023-06-14T06:47:31;5.32;;;3.53;;
36585;SDS011;22591;48.314;11.562;2023-06-14T06:49:56;4.35;;;4.05;;
36585;SDS011;22591;48.314;11.562;2023-06-14T06:52:22;4.57;;;4.18;;
36585;SDS011;22591;48.314;11.562;2023-06-14T06:54:47;5.05;;;4.03;;
36585;SDS011;22591;48.314;11.562;2023-06-14T06:57:14;3.85;;;3.47;;
36585;SDS011;22591;48.314;11.562;2023-06-14T06:59:39;6.40;;;3.88;;
36585;SDS011;22591;48.314;11.562;2023-06-14T07:02:05;4.72;;;3.75;;
36585;SDS011;22591;48.314;11.562;2023-06-14T07:04:31;6.78;;;4.82;;
36585;SDS011;22591;48.314;11.562;2023-06-14T07:06:56;5.10;;;4.65;;
36585;SDS011;22591;48.314;11.562;2023-06-14T07:09:22;7.03;;;4.22;;
36585;SDS011;22591;48.314;11.562;2023-06-14T07:11:49;7.05;;;4.35;;
36585;SDS011;22591;48.314;11.562;2023-06-14T07:14:15;7.60;;;3.95;;
36585;SDS011;22591;48.314;11.562;2023-06-14T07:16:40;4.40;;;3.65;;
36585;SDS011;22591;48.314;11.562;2023-06-14T07:19:06;5.72;;;3.38;;
36585;SDS011;22591;48.314;11.562;2023-06-14T07:21:31;6.18;;;3.60;;
36585;SDS011;22591;48.314;11.562;2023-06-14T07:23:57;5.93;;;4.03;;
36585;SDS011;22591;48.314;11.562;2023-06-14T07:26:23;5.35;;;3.92;;
36585;SDS011;22591;48.314;11.562;2023-06-14T07:28:48;4.55;;;4.15;;
36585;SDS011;22591;48.314;11.562;2023-06-14T07:31:14;4.20;;;3.85;;
36585;SDS011;22591;48.314;11.562;2023-06-14T07:33:41;4.25;;;3.95;;
36585;SDS011;22591;48.314;11.562;2023-06-14T07:36:06;4.18;;;3.88;;
36585;SDS011;22591;48.314;11.562;2023-06-14T07:38:32;4.50;;;4.10;;
36585;SDS011;22591;48.314;11.562;2023-06-14T07:40:58;3.88;;;3.65;;
36585;SDS011;22591;48.314;11.562;2023-06-14T07:43:24;3.97;;;3.67;;
36585;SDS011;22591;48.314;11.562;2023-06-14T07:45:50;4.90;;;3.97;;
36585;SDS011;22591;48.314;11.562;2023-06-14T07:48:15;3.47;;;3.15;;
36585;SDS011;22591;48.314;11.562;2023-06-14T07:50:41;4.13;;;3.72;;
36585;SDS011;22591;48.314;11.562;2023-06-14T07:53:07;6.00;;;3.55;;
36585;SDS011;22591;48.314;11.562;2023-06-14T07:55:32;4.10;;;3.17;;
36585;SDS011;22591;48.314;11.562;2023-06-14T07:58:01;3.85;;;3.55;;
36585;SDS011;22591;48.314;11.562;2023-06-14T08:00:30;3.70;;;3.40;;
36585;SDS011;22591;48.314;11.562;2023-06-14T08:02:56;3.70;;;3.45;;
36585;SDS011;22591;48.314;11.562;2023-06-14T08:05:23;5.03;;;3.53;;
36585;SDS011;22591;48.314;11.562;2023-06-14T08:07:50;4.75;;;3.97;;
36585;SDS011;22591;48.314;11.562;2023-06-14T08:10:16;4.50;;;3.83;;
36585;SDS011;22591;48.314;11.562;2023-06-14T08:12:41;3.25;;;3.05;;
36585;SDS011;22591;48.314;11.562;2023-06-14T08:15:07;4.30;;;3.45;;
36585;SDS011;22591;48.314;11.562;2023-06-14T08:17:33;3.60;;;3.30;;
36585;SDS011;22591;48.314;11.562;2023-06-14T08:19:59;5.57;;;3.30;;
36585;SDS011;22591;48.314;11.562;2023-06-14T08:22:25;7.97;;;3.20;;
36585;SDS011;22591;48.314;11.562;2023-06-14T08:24:50;3.92;;;3.25;;
36585;SDS011;22591;48.314;11.562;2023-06-14T08:27:18;8.32;;;3.03;;
36585;SDS011;22591;48.314;11.562;2023-06-14T08:29:43;3.63;;;3.15;;
36585;SDS011;22591;48.314;11.562;2023-06-14T08:32:09;3.22;;;2.92;;
36585;SDS011;22591;48.314;11.562;2023-06-14T08:34:35;4.15;;;3.10;;
36585;SDS011;22591;48.314;11.562;2023-06-14T08:37:01;4.00;;;3.40;;
36585;SDS011;22591;48.314;11.562;2023-06-14T08:39:26;3.33;;;3.03;;
36585;SDS011;22591;48.314;11.562;2023-06-14T08:41:52;3.67;;;3.38;;
36585;SDS011;22591;48.314;11.562;2023-06-14T08:44:18;4.65;;;3.17;;
36585;SDS011;22591;48.314;11.562;2023-06-14T08:46:43;3.80;;;3.45;;
36585;SDS011;22591;48.314;11.562;2023-06-14T08:49:11;3.83;;;3.00;;
36585;SDS011;22591;48.314;11.562;2023-06-14T08:51:37;7.53;;;3.13;;
36585;SDS011;22591;48.314;11.562;2023-06-14T08:54:03;3.42;;;2.97;;
36585;SDS011;22591;48.314;11.562;2023-06-14T08:56:29;3.80;;;3.50;;
36585;SDS011;22591;48.314;11.562;2023-06-14T08:58:56;4.03;;;3.15;;
36585;SDS011;22591;48.314;11.562;2023-06-14T09:01:28;4.75;;;3.45;;
36585;SDS011;22591;48.314;11.562;2023-06-14T09:03:54;3.30;;;3.00;;
36585;SDS011;22591;48.314;11.562;2023-06-14T09:06:22;3.90;;;3.13;;
36585;SDS011;22591;48.314;11.562;2023-06-14T09:08:49;3.42;;;3.10;;
36585;SDS011;22591;48.314;11.562;2023-06-14T09:11:16;3.15;;;2.92;;
36585;SDS011;22591;48.314;11.562;2023-06-14T09:13:44;6.00;;;3.08;;
36585;SDS011;22591;48.314;11.562;2023-06-14T09:16:10;2.85;;;2.65;;
36585;SDS011;22591;48.314;11.562;2023-06-14T09:18:40;3.92;;;3.28;;
36585;SDS011;22591;48.314;11.562;2023-06-14T09:21:09;5.63;;;3.03;;
36585;SDS011;22591;48.314;11.562;2023-06-14T09:23:39;4.38;;;3.22;;
36585;SDS011;22591;48.314;11.562;2023-06-14T09:26:07;9.45;;;3.53;;
36585;SDS011;22591;48.314;11.562;2023-06-14T09:28:43;6.35;;;3.67;;
36585;SDS011;22591;48.314;11.562;2023-06-14T09:31:11;4.10;;;3.00;;
36585;SDS011;22591;48.314;11.562;2023-06-14T09:33:37;6.90;;;3.42;;
36585;SDS011;22591;48.314;11.562;2023-06-14T09:36:03;3.65;;;2.85;;
36585;SDS011;22591;48.314;11.562;2023-06-14T09:38:30;3.20;;;3.00;;
36585;SDS011;22591;48.314;11.562;2023-06-14T09:40:58;4.00;;;3.60;;
36585;SDS011;22591;48.314;11.562;2023-06-14T09:43:24;3.03;;;2.70;;
36585;SDS011;22591;48.314;11.562;2023-06-14T09:45:52;5.53;;;3.30;;
36585;SDS011;22591;48.314;11.562;2023-06-14T09:48:19;3.10;;;2.90;;
36585;SDS011;22591;48.314;11.562;2023-06-14T09:50:45;2.50;;;2.30;;
36585;SDS011;22591;48.314;11.562;2023-06-14T09:53:12;5.38;;;3.33;;
36585;SDS011;22591;48.314;11.562;2023-06-14T09:55:40;3.15;;;2.70;;
36585;SDS011;22591;48.314;11.562;2023-06-14T09:58:07;2.60;;;2.40;;
36585;SDS011;22591;48.314;11.562;2023-06-14T10:00:34;7.90;;;2.97;;
36585;SDS011;22591;48.314;11.562;2023-06-14T10:03:12;4.07;;;3.03;;
36585;SDS011;22591;48.314;11.562;2023-06-14T10:05:39;6.25;;;2.70;;
36585;SDS011;22591;48.314;11.562;2023-06-14T10:08:08;2.95;;;2.63;;
36585;SDS011;22591;48.314;11.562;2023-06-14T10:10:35;3.28;;;2.88;;
36585;SDS011;22591;48.314;11.562;2023-06-14T10:13:05;2.92;;;2.72;;
36585;SDS011;22591;48.314;11.562;2023-06-14T10:15:36;2.83;;;2.63;;
36585;SDS011;22591;48.314;11.562;2023-06-14T10:20:52;3.85;;;2.65;;
36585;SDS011;22591;48.314;11.562;2023-06-14T10:23:19;7.15;;;3.28;;
36585;SDS011;22591;48.314;11.562;2023-06-14T10:25:54;2.83;;;2.63;;
36585;SDS011;22591;48.314;11.562;2023-06-14T10:28:21;6.07;;;2.75;;
36585;SDS011;22591;48.314;11.562;2023-06-14T10:31:07;3.50;;;3.20;;
36585;SDS011;22591;48.314;11.562;2023-06-14T10:33:50;4.18;;;3.42;;
36585;SDS011;22591;48.314;11.562;2023-06-14T10:41:52;3.65;;;3.35;;
36585;SDS011;22591;48.314;11.562;2023-06-14T10:46:52;4.18;;;3.28;;
36585;SDS011;22591;48.314;11.562;2023-06-14T10:49:18;5.13;;;3.15;;
36585;SDS011;22591;48.314;11.562;2023-06-14T10:51:45;2.75;;;2.53;;
36585;SDS011;22591;48.314;11.562;2023-06-14T10:54:14;7.22;;;2.95;;
36585;SDS011;22591;48.314;11.562;2023-06-14T10:56:47;5.38;;;2.80;;
36585;SDS011;22591;48.314;11.562;2023-06-14T10:59:18;6.00;;;3.00;;
36585;SDS011;22591;48.314;11.562;2023-06-14T11:04:21;5.25;;;2.65;;
36585;SDS011;22591;48.314;11.562;2023-06-14T11:07:03;4.90;;;3.30;;
36585;SDS011;22591;48.314;11.562;2023-06-14T11:10:00;3.13;;;2.92;;
36585;SDS011;22591;48.314;11.562;2023-06-14T11:12:40;5.55;;;2.80;;
36585;SDS011;22591;48.314;11.562;2023-06-14T11:15:10;4.05;;;2.60;;
36585;SDS011;22591;48.314;11.562;2023-06-14T11:17:36;6.40;;;3.38;;
36585;SDS011;22591;48.314;11.562;2023-06-14T11:20:11;3.45;;;3.15;;
36585;SDS011;22591;48.314;11.562;2023-06-14T11:22:41;5.38;;;3.42;;
36585;SDS011;22591;48.314;11.562;2023-06-14T11:25:11;4.13;;;3.17;;
36585;SDS011;22591;48.314;11.562;2023-06-14T11:27:37;4.32;;;2.70;;
36585;SDS011;22591;48.314;11.562;2023-06-14T11:30:02;3.42;;;3.13;;
36585;SDS011;22591;48.314;11.562;2023-06-14T11:32:31;4.70;;;2.60;;
36585;SDS011;22591;48.314;11.562;2023-06-14T11:34:57;3.75;;;3.00;;
36585;SDS011;22591;48.314;11.562;2023-06-14T11:37:25;3.30;;;3.00;;
36585;SDS011;22591;48.314;11.562;2023-06-14T11:39:55;4.90;;;2.90;;
36585;SDS011;22591;48.314;11.562;2023-06-14T11:42:26;5.57;;;3.65;;
36585;SDS011;22591;48.314;11.562;2023-06-14T11:44:55;6.00;;;2.83;;
36585;SDS011;22591;48.314;11.562;2023-06-14T11:47:21;4.32;;;2.53;;
36585;SDS011;22591;48.314;11.562;2023-06-14T11:49:47;2.97;;;2.83;;
36585;SDS011;22591;48.314;11.562;2023-06-14T11:52:13;7.35;;;3.03;;
36585;SDS011;22591;48.314;11.562;2023-06-14T11:54:39;3.10;;;2.78;;
36585;SDS011;22591;48.314;11.562;2023-06-14T11:57:06;4.10;;;3.15;;
36585;SDS011;22591;48.314;11.562;2023-06-14T11:59:38;4.68;;;2.78;;
36585;SDS011;22591;48.314;11.562;2023-06-14T12:02:09;3.17;;;2.88;;
36585;SDS011;22591;48.314;11.562;2023-06-14T12:04:35;2.88;;;2.67;;
36585;SDS011;22591;48.314;11.562;2023-06-14T12:07:13;3.58;;;3.10;;
36585;SDS011;22591;48.314;11.562;2023-06-14T12:09:41;3.60;;;3.13;;
36585;SDS011;22591;48.314;11.562;2023-06-14T12:12:11;3.20;;;2.90;;
36585;SDS011;22591;48.314;11.562;2023-06-14T12:14:37;2.90;;;2.63;;
36585;SDS011;22591;48.314;11.562;2023-06-14T12:17:06;3.60;;;3.30;;
36585;SDS011;22591;48.314;11.562;2023-06-14T12:19:32;3.33;;;3.00;;
36585;SDS011;22591;48.314;11.562;2023-06-14T12:22:01;3.28;;;2.97;;
36585;SDS011;22591;48.314;11.562;2023-06-14T12:24:30;3.90;;;3.20;;
36585;SDS011;22591;48.314;11.562;2023-06-14T12:26:57;6.88;;;3.22;;
36585;SDS011;22591;48.314;11.562;2023-06-14T12:29:28;4.95;;;3.13;;
36585;SDS011;22591;48.314;11.562;2023-06-14T12:31:54;4.75;;;3.25;;
36585;SDS011;22591;48.314;11.562;2023-06-14T12:34:21;3.28;;;3.00;;
36585;SDS011;22591;48.314;11.562;2023-06-14T12:36:47;2.78;;;2.58;;
36585;SDS011;22591;48.314;11.562;2023-06-14T12:39:14;3.42;;;2.97;;
36585;SDS011;22591;48.314;11.562;2023-06-14T12:41:40;4.25;;;2.90;;
36585;SDS011;22591;48.314;11.562;2023-06-14T12:44:09;2.80;;;2.60;;
36585;SDS011;22591;48.314;11.562;2023-06-14T12:46:36;6.93;;;3.47;;
36585;SDS011;22591;48.314;11.562;2023-06-14T12:49:02;5.07;;;2.88;;
36585;SDS011;22591;48.314;11.562;2023-06-14T12:51:27;3.05;;;2.83;;
36585;SDS011;22591;48.314;11.562;2023-06-14T12:53:53;4.32;;;2.92;;
36585;SDS011;22591;48.314;11.562;2023-06-14T12:56:19;4.20;;;2.83;;
36585;SDS011;22591;48.314;11.562;2023-06-14T12:58:44;3.63;;;3.35;;
36585;SDS011;22591;48.314;11.562;2023-06-14T13:01:10;3.00;;;2.78;;
36585;SDS011;22591;48.314;11.562;2023-06-14T13:03:36;2.92;;;2.72;;
36585;SDS011;22591;48.314;11.562;2023-06-14T13:06:01;3.53;;;3.22;;
36585;SDS011;22591;48.314;11.562;2023-06-14T13:08:29;3.38;;;3.08;;
36585;SDS011;22591;48.314;11.562;2023-06-14T13:10:55;3.17;;;2.97;;
36585;SDS011;22591;48.314;11.562;2023-06-14T13:13:20;3.30;;;3.10;;
36585;SDS011;22591;48.314;11.562;2023-06-14T13:15:46;2.97;;;2.78;;
36585;SDS011;22591;48.314;11.562;2023-06-14T13:18:13;4.50;;;2.75;;
36585;SDS011;22591;48.314;11.562;2023-06-14T13:20:39;2.95;;;2.75;;
36585;SDS011;22591;48.314;11.562;2023-06-14T13:23:04;3.92;;;3.03;;
36585;SDS011;22591;48.314;11.562;2023-06-14T13:25:32;8.00;;;2.80;;
36585;SDS011;22591;48.314;11.562;2023-06-14T13:28:02;3.58;;;3.22;;
36585;SDS011;22591;48.314;11.562;2023-06-14T13:30:31;2.92;;;2.67;;
36585;SDS011;22591;48.314;11.562;2023-06-14T13:32:57;3.67;;;3.15;;
36585;SDS011;22591;48.314;11.562;2023-06-14T13:35:23;3.17;;;2.88;;
36585;SDS011;22591;48.314;11.562;2023-06-14T13:37:49;3.20;;;3.00;;
36585;SDS011;22591;48.314;11.562;2023-06-14T13:40:15;2.97;;;2.78;;
36585;SDS011;22591;48.314;11.562;2023-06-14T13:42:41;6.82;;;3.28;;
36585;SDS011;22591;48.314;11.562;2023-06-14T13:45:07;3.65;;;3.30;;
36585;SDS011;22591;48.314;11.562;2023-06-14T13:47:33;4.53;;;3.03;;
36585;SDS011;22591;48.314;11.562;2023-06-14T13:49:59;5.28;;;2.90;;
36585;SDS011;22591;48.314;11.562;2023-06-14T13:52:25;3.08;;;2.88;;
36585;SDS011;22591;48.314;11.562;2023-06-14T13:54:51;4.97;;;3.30;;
36585;SDS011;22591;48.314;11.562;2023-06-14T13:57:17;3.47;;;3.17;;
36585;SDS011;22591;48.314;11.562;2023-06-14T13:59:43;6.07;;;3.10;;
36585;SDS011;22591;48.314;11.562;2023-06-14T14:02:09;3.80;;;3.03;;
36585;SDS011;22591;48.314;11.562;2023-06-14T14:04:36;3.70;;;2.90;;
36585;SDS011;22591;48.314;11.562;2023-06-14T14:07:02;6.07;;;3.10;;
36585;SDS011;22591;48.314;11.562;2023-06-14T14:09:29;3.20;;;2.92;;
36585;SDS011;22591;48.314;11.562;2023-06-14T14:11:55;2.80;;;2.60;;
36585;SDS011;22591;48.314;11.562;2023-06-14T14:14:21;2.95;;;2.75;;
36585;SDS011;22591;48.314;11.562;2023-06-14T14:16:47;2.90;;;2.70;;
36585;SDS011;22591;48.314;11.562;2023-06-14T14:19:13;3.45;;;2.78;;
36585;SDS011;22591;48.314;11.562;2023-06-14T14:21:39;3.47;;;3.17;;
36585;SDS011;22591;48.314;11.562;2023-06-14T14:24:04;3.58;;;2.45;;
36585;SDS011;22591;48.314;11.562;2023-06-14T14:26:30;7.05;;;3.03;;
36585;SDS011;22591;48.314;11.562;2023-06-14T14:28:56;4.45;;;3.08;;
36585;SDS011;22591;48.314;11.562;2023-06-14T14:31:21;2.92;;;2.70;;
36585;SDS011;22591;48.314;11.562;2023-06-14T14:33:47;2.97;;;2.70;;
36585;SDS011;22591;48.314;11.562;2023-06-14T14:36:12;2.80;;;2.60;;
36585;SDS011;22591;48.314;11.562;2023-06-14T14:38:38;3.30;;;3.10;;
36585;SDS011;22591;48.314;11.562;2023-06-14T14:41:04;4.13;;;3.17;;
36585;SDS011;22591;48.314;11.562;2023-06-14T14:43:30;3.30;;;2.60;;
36585;SDS011;22591;48.314;11.562;2023-06-14T14:45:56;7.30;;;3.47;;
36585;SDS011;22591;48.314;11.562;2023-06-14T14:48:22;3.88;;;3.08;;